ASN logo
 
Statuts:
Date:jeudi 5 novembre 2020
Heure:13:15 UTC
Type/Sous-type:Silhouette image of generic SW4 model; specific model in this crash may look slightly different
Fairchild SA227-AC Metro III
Compagnie:Dos Mil Aerosistema SA
Immatriculation: LV-VDJ
Numéro de série: AC-729
Année de Fabrication: 1989
Equipage:victimes: 0 / à bord:
Passagers:victimes: 0 / à bord:
Total:victimes: 0 / à bord: 10
Dégats de l'appareil: Substantiels
Conséquences: Repaired
Lieu de l'accident:Mendoza-El Plumerillo Airport, MD (MDZ) (   Argentine)
Phase de vol: A l'atterrissage (LDG)
Nature:Charter National
Aéroport de départ:San Juan Airport, SJ (UAQ/SANU), Argentine
Aéroport de destination:Mendoza-El Plumerillo Airport, MD (MDZ/SAME), Argentine
Détails:
A Swearingen SA227-AC Metro III, registration LV-VDJ, suffered a runway excursion after landing on runway 18 at Mendoza-El Plumerillo Airport, Argentina. The right-hand main landing gear collapsed.

Accident investigation:
Investigating agency: JST
Status: Investigation completed
Duration: 2 years
Accident number: 75511048/20
Download report: Summary report
Language: Spanish

Sources:
» infobae.com

METAR Weather report:
12:00 UTC / 09:00 local time:
SAME 051200Z 18011KT CAVOK 19/00 Q1021

13:00 UTC / 10:00 local time:
SAME 051300Z 16015KT CAVOK 20/M03 Q1021

14:00 UTC / 11:00 local time:
SAME 051400Z 16014KT CAVOK 21/M03 Q1020


Photos

Add your photo of this accident or aircraft

Video, social media

Plan
Ce plan montre l'aéroport de départ ainsi que la supposée destination du vol. La ligne fixe reliant les deux aéroports n'est pas le plan de vol exact.
La distance entre San Juan Airport, SJ et Mendoza-El Plumerillo Airport, MD est de 144 km (90 miles).
Accident location: Approximate; accuracy within a few kilometers.

Les informations ci-dessus ne représentent pas l'opinion de la 'Flight Safety Foundation' ou de 'Aviation Safety Network' sur les causes de l'accident. Ces informations prélimimaires sont basées sur les faits tel qu'ils sont connus à ce jour.
languages: languages

Share

GAPPRE
GAPPRE
Global Action Plan for the Prevention of Runway Excursions (GAPPRE): recommendations and guidance material to prevent runway excursions

The Aviation Safety Network is an exclusive service provided by:
Quick Links:

CONNECT WITH US: FSF Facebook FSF Twitter FSF Youtube FSF LinkedIn FSF Instagram

©2022 Flight Safety Foundation

701 N. Fairfax St., Ste. 250
Alexandria, Virginia 22314
www.FlightSafety.org